Time;durP1;ratioP1;P1;durP2;ratioP2;P2;SDS_P1;SDS_P2;PMS_P1;PMS_P2;Temp;Humidity;BMP_temperature;BMP_pressure;BME280_temperature;BME280_humidity;BME280_pressure;Samples;Min_cycle;Max_cycle;Signal;HPM_P1;HPM_P2
2023/04/21 00:01:07;;;;;;;16.97;11.30;;;8.70;99.90;;;;;;7287473;19;20279;-77
2023/04/21 00:03:37;;;;;;;17.20;11.13;;;8.60;99.90;;;;;;7287232;19;20193;-78
2023/04/21 00:06:05;;;;;;;18.83;11.67;;;8.60;99.90;;;;;;7287744;19;20233;-79
2023/04/21 00:08:31;;;;;;;17.83;10.93;;;8.60;99.90;;;;;;7288154;19;20306;-78
2023/04/21 00:10:57;;;;;;;17.90;11.77;;;8.60;99.90;;;;;;7305323;19;20188;-77
2023/04/21 00:13:23;;;;;;;19.07;12.03;;;8.70;99.90;;;;;;7306748;19;20193;-78
2023/04/21 00:15:49;;;;;;;18.67;11.10;;;8.70;99.90;;;;;;7287566;19;20189;-79
2023/04/21 00:18:16;;;;;;;16.93;10.77;;;8.80;99.90;;;;;;7288968;19;20199;-78
2023/04/21 00:20:43;;;;;;;18.40;11.30;;;8.80;99.90;;;;;;7288885;19;20192;-78
2023/04/21 00:23:10;;;;;;;17.47;11.50;;;8.80;99.90;;;;;;7289828;19;20706;-77
2023/04/21 00:25:36;;;;;;;18.10;12.43;;;8.80;99.90;;;;;;7289082;19;20181;-78
2023/04/21 00:28:02;;;;;;;18.43;11.97;;;8.80;99.90;;;;;;7286916;19;20261;-78
2023/04/21 00:30:28;;;;;;;19.10;12.10;;;8.90;99.90;;;;;;7296235;19;20668;-77
2023/04/21 00:32:54;;;;;;;17.20;11.23;;;9.00;99.90;;;;;;7310092;19;20195;-78
2023/04/21 00:35:21;;;;;;;16.43;11.53;;;9.00;99.90;;;;;;7286700;19;20194;-78
2023/04/21 00:37:49;;;;;;;18.43;11.77;;;9.00;99.90;;;;;;7287014;19;20542;-78
2023/04/21 00:40:15;;;;;;;17.03;11.40;;;9.00;99.90;;;;;;7287537;19;20193;-78
2023/04/21 00:42:41;;;;;;;19.07;12.43;;;8.80;99.90;;;;;;7286312;19;20654;-77
2023/04/21 00:45:07;;;;;;;20.97;13.63;;;8.80;99.90;;;;;;7288773;19;20196;-78
2023/04/21 00:47:33;;;;;;;19.20;12.27;;;8.80;99.90;;;;;;7286820;19;20196;-79
2023/04/21 00:49:59;;;;;;;19.33;12.70;;;8.90;99.90;;;;;;7288135;19;20185;-78
2023/04/21 00:52:26;;;;;;;19.57;12.73;;;9.00;99.90;;;;;;7309539;19;20190;-78
2023/04/21 00:54:53;;;;;;;19.63;12.93;;;9.10;99.90;;;;;;7287340;19;20189;-79
2023/04/21 00:57:20;;;;;;;19.60;12.67;;;9.20;99.90;;;;;;7286574;19;20192;-78
2023/04/21 00:59:46;;;;;;;19.47;13.27;;;9.10;99.90;;;;;;7285962;19;20189;-78
2023/04/21 01:02:17;;;;;;;20.27;13.67;;;9.20;99.90;;;;;;7287818;19;20653;-78
2023/04/21 01:04:44;;;;;;;20.87;13.60;;;9.30;99.90;;;;;;7287448;19;20261;-78
2023/04/21 01:07:10;;;;;;;19.80;13.23;;;9.30;99.90;;;;;;7287738;19;20186;-77
2023/04/21 01:09:36;;;;;;;23.67;13.57;;;9.40;99.90;;;;;;7286588;19;20185;-79
2023/04/21 01:12:04;;;;;;;23.53;14.03;;;9.40;99.90;;;;;;7287917;19;20181;-77
2023/04/21 01:14:33;;;;;;;19.63;13.57;;;9.40;99.90;;;;;;7285870;19;20209;-77
2023/04/21 01:16:59;;;;;;;22.03;14.30;;;9.40;99.90;;;;;;7286979;19;20189;-77
2023/04/21 01:19:30;;;;;;;19.80;13.53;;;9.40;99.90;;;;;;7308887;19;20662;-78
2023/04/21 01:21:57;;;;;;;22.07;14.13;;;9.30;99.90;;;;;;7287772;19;20181;-78
2023/04/21 01:24:26;;;;;;;22.03;15.00;;;9.30;99.90;;;;;;7288698;19;20193;-78
2023/04/21 01:26:52;;;;;;;23.23;14.90;;;9.40;99.90;;;;;;7288001;19;20198;-79
2023/04/21 01:29:17;;;;;;;23.10;14.97;;;9.50;99.90;;;;;;7285638;19;20767;-77
2023/04/21 01:31:46;;;;;;;22.17;14.30;;;9.50;99.90;;;;;;7287217;19;20185;-78
2023/04/21 01:34:12;;;;;;;21.43;15.13;;;9.50;99.90;;;;;;7286279;19;20196;-77
2023/04/21 01:36:38;;;;;;;23.63;16.07;;;9.40;99.90;;;;;;7286706;19;20192;-77
2023/04/21 01:39:04;;;;;;;24.23;16.20;;;9.30;99.90;;;;;;7286932;19;20181;-77
2023/04/21 01:41:29;;;;;;;21.80;15.43;;;9.30;99.90;;;;;;7286381;19;20185;-77
2023/04/21 01:43:55;;;;;;;23.57;16.43;;;9.30;99.90;;;;;;7308613;19;20204;-78
2023/04/21 01:46:23;;;;;;;25.30;17.33;;;9.30;99.90;;;;;;7285406;19;21010;-78
2023/04/21 01:48:49;;;;;;;27.27;17.47;;;9.30;99.90;;;;;;7286153;19;20184;-77
2023/04/21 01:51:15;;;;;;;25.30;17.33;;;9.20;99.90;;;;;;7285847;19;20264;-77
2023/04/21 01:53:40;;;;;;;26.07;17.07;;;8.90;99.90;;;;;;7286451;19;20192;-77
2023/04/21 01:56:06;;;;;;;25.80;17.53;;;8.80;99.90;;;;;;7284968;19;20187;-77
2023/04/21 01:58:32;;;;;;;26.67;17.37;;;8.50;99.90;;;;;;7285652;19;20200;-77
2023/04/21 02:00:58;;;;;;;26.67;17.33;;;8.40;99.90;;;;;;7294505;19;20187;-77
2023/04/21 02:03:24;;;;;;;26.03;18.40;;;8.40;99.90;;;;;;7306432;19;20184;-78
2023/04/21 02:05:50;;;;;;;29.00;19.40;;;8.30;99.90;;;;;;7285915;19;20185;-78
2023/04/21 02:08:16;;;;;;;26.00;18.43;;;8.30;99.90;;;;;;7285396;19;20189;-77
2023/04/21 02:10:42;;;;;;;26.80;18.83;;;8.30;99.90;;;;;;7285105;19;20199;-77
2023/04/21 02:13:11;;;;;;;27.90;18.70;;;8.30;99.90;;;;;;7284626;19;20189;-78
2023/04/21 02:15:36;;;;;;;26.43;17.10;;;8.30;99.90;;;;;;7285121;19;20736;-78
2023/04/21 02:18:03;;;;;;;32.03;20.67;;;8.20;99.90;;;;;;7285172;19;20192;-77
2023/04/21 02:20:28;;;;;;;28.57;19.77;;;8.20;99.90;;;;;;7290400;19;20688;-77
2023/04/21 02:22:54;;;;;;;31.77;22.23;;;8.30;99.90;;;;;;7306288;19;20196;-77
2023/04/21 02:25:20;;;;;;;34.20;23.50;;;8.40;99.90;;;;;;7284622;19;20179;-78
2023/04/21 02:27:46;;;;;;;35.00;23.33;;;8.50;99.90;;;;;;7284051;19;20549;-77
2023/04/21 02:30:11;;;;;;;35.27;23.37;;;8.70;99.90;;;;;;7285247;19;20188;-77
2023/04/21 02:32:37;;;;;;;36.33;24.70;;;8.90;99.90;;;;;;7285268;19;20200;-77
2023/04/21 02:35:03;;;;;;;37.80;25.27;;;9.00;99.90;;;;;;7284841;19;20190;-77
2023/04/21 02:37:30;;;;;;;40.93;26.03;;;9.00;99.90;;;;;;7285133;19;20585;-76
2023/04/21 02:39:55;;;;;;;39.93;26.43;;;9.00;99.90;;;;;;7306621;19;20183;-78
2023/04/21 02:42:23;;;;;;;41.80;27.80;;;9.10;99.90;;;;;;7284509;19;20644;-77
2023/04/21 02:44:49;;;;;;;42.20;28.67;;;9.10;99.90;;;;;;7284740;19;20212;-77
2023/04/21 02:47:15;;;;;;;41.97;27.63;;;9.10;99.90;;;;;;7284529;19;20195;-77
2023/04/21 02:49:42;;;;;;;40.73;26.50;;;8.90;99.90;;;;;;7285087;19;20183;-77
2023/04/21 02:52:08;;;;;;;38.50;26.67;;;8.70;99.90;;;;;;7285801;19;20192;-77
2023/04/21 02:54:34;;;;;;;39.13;26.47;;;8.70;99.90;;;;;;7284930;19;20720;-77
2023/04/21 02:57:02;;;;;;;41.70;28.13;;;8.70;99.90;;;;;;7284648;19;20195;-77
2023/04/21 02:59:28;;;;;;;43.23;28.23;;;8.70;99.90;;;;;;7297506;19;20206;-76
2023/04/21 03:01:54;;;;;;;44.40;29.83;;;8.70;99.90;;;;;;7301547;19;20499;-78
2023/04/21 03:04:19;;;;;;;45.13;30.17;;;8.60;99.90;;;;;;7284759;19;20213;-77
2023/04/21 03:06:45;;;;;;;44.47;29.93;;;8.50;99.90;;;;;;7286095;19;20185;-77
2023/04/21 03:09:11;;;;;;;48.20;31.60;;;8.60;99.90;;;;;;7285494;19;20190;-77
2023/04/21 03:11:37;;;;;;;48.20;32.63;;;8.70;99.90;;;;;;7284153;19;20184;-77
2023/04/21 03:14:03;;;;;;;48.30;31.67;;;8.70;99.90;;;;;;7284086;19;20640;-77
2023/04/21 03:16:28;;;;;;;50.77;32.60;;;8.70;99.90;;;;;;7289740;19;20182;-77
2023/04/21 03:18:54;;;;;;;48.57;32.43;;;8.70;99.90;;;;;;7306407;19;20682;-77
2023/04/21 03:21:20;;;;;;;48.67;32.17;;;8.70;99.90;;;;;;7281719;19;20192;-77
2023/04/21 03:23:46;;;;;;;50.33;32.10;;;8.80;99.90;;;;;;7283476;19;20666;-77
2023/04/21 03:26:12;;;;;;;52.57;33.33;;;8.80;99.90;;;;;;7283981;19;20187;-78
2023/04/21 03:28:37;;;;;;;52.57;33.40;;;8.90;99.90;;;;;;7282040;19;20191;-77
2023/04/21 03:31:03;;;;;;;49.30;33.10;;;8.90;99.90;;;;;;7283373;19;20192;-77
2023/04/21 03:33:29;;;;;;;51.40;33.80;;;8.90;99.90;;;;;;7288463;19;20181;-77
2023/04/21 03:35:55;;;;;;;54.17;34.97;;;8.90;99.90;;;;;;7305156;19;20286;-78
2023/04/21 03:38:21;;;;;;;55.90;35.80;;;8.90;99.90;;;;;;7283367;19;20189;-77
2023/04/21 03:40:47;;;;;;;56.03;35.90;;;8.80;99.90;;;;;;7283174;19;20186;-77
2023/04/21 03:43:12;;;;;;;53.17;35.73;;;8.70;99.90;;;;;;7281774;19;20293;-78
2023/04/21 03:45:38;;;;;;;57.37;36.23;;;8.80;99.90;;;;;;7282756;19;20657;-77
2023/04/21 03:48:04;;;;;;;60.60;36.90;;;8.80;99.90;;;;;;7281669;19;20185;-77
2023/04/21 03:50:30;;;;;;;57.27;36.80;;;8.70;99.90;;;;;;7282367;19;20194;-77
2023/04/21 03:52:56;;;;;;;56.40;35.53;;;8.70;99.90;;;;;;7304667;19;20246;-77
2023/04/21 03:55:21;;;;;;;59.87;37.73;;;8.60;99.90;;;;;;7281572;19;20608;-77
2023/04/21 03:57:47;;;;;;;55.63;35.73;;;8.50;99.90;;;;;;7282612;19;20203;-77
2023/04/21 04:00:13;;;;;;;57.50;37.37;;;8.50;99.90;;;;;;7283251;19;20200;-77
2023/04/21 04:02:39;;;;;;;60.93;37.57;;;8.40;99.90;;;;;;7281704;19;20659;-77
2023/04/21 04:05:06;;;;;;;57.73;37.30;;;8.40;99.90;;;;;;7282547;19;20196;-77
2023/04/21 04:07:32;;;;;;;57.53;36.33;;;8.40;99.90;;;;;;7280433;19;20208;-77
2023/04/21 04:09:58;;;;;;;61.17;36.73;;;8.40;99.90;;;;;;7300106;19;20198;-77
2023/04/21 04:12:24;;;;;;;58.67;37.50;;;8.40;99.90;;;;;;7294026;19;20195;-77
2023/04/21 04:14:50;;;;;;;59.83;37.70;;;8.40;99.90;;;;;;7281090;19;20611;-78
2023/04/21 04:17:16;;;;;;;58.63;36.10;;;8.40;99.90;;;;;;7282156;19;20249;-78
2023/04/21 04:19:42;;;;;;;60.17;36.60;;;8.40;99.90;;;;;;7281580;19;20211;-77
2023/04/21 04:22:08;;;;;;;57.77;36.40;;;8.30;99.90;;;;;;7280673;19;20187;-77
2023/04/21 04:24:34;;;;;;;60.27;37.50;;;8.40;99.90;;;;;;7282866;19;20611;-77
2023/04/21 04:27:02;;;;;;;59.30;36.70;;;8.50;99.90;;;;;;7281502;19;20290;-77
2023/04/21 04:29:28;;;;;;;57.13;36.10;;;8.50;99.90;;;;;;7304936;19;20192;-78
2023/04/21 04:31:55;;;;;;;58.30;37.43;;;8.50;99.90;;;;;;7282499;19;20659;-78
2023/04/21 04:34:22;;;;;;;58.27;35.83;;;8.50;99.90;;;;;;7286014;19;20204;-78
2023/04/21 04:36:49;;;;;;;58.87;35.90;;;8.60;99.90;;;;;;7288903;19;20871;-77
2023/04/21 04:39:15;;;;;;;56.67;35.37;;;8.60;99.90;;;;;;7287572;19;20179;-78
2023/04/21 04:41:41;;;;;;;55.97;34.80;;;8.60;99.90;;;;;;7286798;19;20191;-77
2023/04/21 04:44:07;;;;;;;55.67;35.83;;;8.70;99.90;;;;;;7288919;19;20210;-77
2023/04/21 04:46:34;;;;;;;55.93;36.23;;;8.70;99.90;;;;;;7288468;19;20659;-77
2023/04/21 04:49:00;;;;;;;56.70;36.20;;;8.70;99.90;;;;;;7294402;19;20199;-77
2023/04/21 04:51:26;;;;;;;54.93;34.90;;;8.70;99.90;;;;;;7309537;19;20614;-77
2023/04/21 04:53:52;;;;;;;55.03;34.67;;;8.70;99.90;;;;;;7287755;19;20276;-77
2023/04/21 04:56:18;;;;;;;54.07;34.97;;;8.60;99.90;;;;;;7287362;19;20208;-78
2023/04/21 04:58:45;;;;;;;53.10;34.83;;;8.60;99.90;;;;;;7289618;19;20593;-78
2023/04/21 05:01:12;;;;;;;51.33;33.53;;;8.70;99.90;;;;;;7286972;19;20517;-78
2023/04/21 05:03:38;;;;;;;52.70;34.03;;;8.70;99.90;;;;;;7288702;19;20191;-78
2023/04/21 05:06:04;;;;;;;50.80;32.80;;;8.80;99.90;;;;;;7286800;19;20219;-77
2023/04/21 05:08:30;;;;;;;50.17;32.40;;;8.80;99.90;;;;;;7286141;19;20195;-76
2023/04/21 05:10:56;;;;;;;50.93;33.40;;;8.90;99.90;;;;;;7309405;19;20203;-77
2023/04/21 05:13:22;;;;;;;54.83;34.93;;;8.90;99.90;;;;;;7287958;19;20704;-77
2023/04/21 05:15:47;;;;;;;52.17;33.23;;;8.80;99.90;;;;;;7287227;19;20189;-77
2023/04/21 05:18:13;;;;;;;54.53;34.63;;;8.80;99.90;;;;;;7288096;19;20663;-76
2023/04/21 05:20:41;;;;;;;53.23;34.67;;;8.80;99.90;;;;;;7286018;19;20651;-77
2023/04/21 05:23:07;;;;;;;54.37;34.90;;;8.80;99.90;;;;;;7287776;19;20190;-79
2023/04/21 05:25:33;;;;;;;51.07;32.80;;;8.70;99.90;;;;;;7285198;19;20204;-76
2023/04/21 05:27:59;;;;;;;50.67;32.50;;;8.80;99.90;;;;;;7296907;19;20725;-76
2023/04/21 05:30:25;;;;;;;49.63;33.00;;;8.90;99.90;;;;;;7306396;19;20187;-77
2023/04/21 05:32:50;;;;;;;53.73;35.10;;;9.00;99.90;;;;;;7287198;19;20698;-78
2023/04/21 05:35:16;;;;;;;51.93;32.07;;;9.30;99.90;;;;;;7285950;19;20185;-77
2023/04/21 05:37:42;;;;;;;48.27;31.40;;;9.70;99.90;;;;;;7287532;19;20200;-78
2023/04/21 05:40:08;;;;;;;45.40;30.37;;;9.90;99.90;;;;;;7284669;19;20668;-79
2023/04/21 05:42:34;;;;;;;43.50;29.97;;;10.00;99.90;;;;;;7286140;19;20192;-78
2023/04/21 05:45:00;;;;;;;41.07;28.30;;;9.80;99.90;;;;;;7291945;19;20196;-77
2023/04/21 05:47:25;;;;;;;40.73;27.80;;;10.00;99.90;;;;;;7307804;19;20300;-77
2023/04/21 05:49:52;;;;;;;36.07;25.40;;;10.60;99.90;;;;;;7285846;19;20249;-79
2023/04/21 05:52:20;;;;;;;36.33;25.27;;;11.20;99.90;;;;;;7284997;19;20221;-80
2023/04/21 05:54:45;;;;;;;37.60;25.20;;;11.40;99.90;;;;;;7285838;19;20198;-79
2023/04/21 05:57:11;;;;;;;32.97;24.27;;;12.00;99.90;;;;;;7285359;19;20204;-79
2023/04/21 05:59:37;;;;;;;33.33;23.47;;;12.20;99.90;;;;;;7283878;19;20254;-79
2023/04/21 06:02:03;;;;;;;28.17;21.20;;;12.80;99.90;;;;;;7286730;19;20185;-79
2023/04/21 06:04:29;;;;;;;30.70;21.60;;;13.20;99.90;;;;;;7300997;19;20229;-79
2023/04/21 06:06:55;;;;;;;29.60;21.57;;;13.20;99.90;;;;;;7301131;19;20180;-79
2023/04/21 06:09:20;;;;;;;29.70;21.83;;;13.00;99.90;;;;;;7286004;19;20186;-79
2023/04/21 06:11:46;;;;;;;27.83;20.40;;;12.90;99.90;;;;;;7286093;19;20526;-79
2023/04/21 06:14:12;;;;;;;27.17;20.53;;;13.00;99.90;;;;;;7285513;19;20666;-79
2023/04/21 06:16:37;;;;;;;28.03;20.33;;;13.30;99.90;;;;;;7284458;19;20189;-79
2023/04/21 06:19:03;;;;;;;27.13;19.83;;;13.40;99.90;;;;;;7284545;19;20184;-78
2023/04/21 06:21:29;;;;;;;24.77;18.77;;;13.60;99.90;;;;;;7298333;19;20190;-79
2023/04/21 06:23:55;;;;;;;25.33;18.43;;;13.90;99.90;;;;;;7304196;19;20187;-79
2023/04/21 06:26:21;;;;;;;22.07;17.67;;;14.90;99.90;;;;;;7285957;19;20190;-80
2023/04/21 06:28:47;;;;;;;24.50;17.47;;;15.20;99.90;;;;;;7284826;19;20206;-78
2023/04/21 06:31:14;;;;;;;21.03;16.07;;;16.10;99.90;;;;;;7279389;19;20193;-79
2023/04/21 06:33:40;;;;;;;22.30;16.40;;;16.50;99.90;;;;;;7284908;19;20199;-80
2023/04/21 06:36:06;;;;;;;23.50;17.37;;;16.80;99.90;;;;;;7285745;19;20194;-78
2023/04/21 06:38:32;;;;;;;22.13;16.20;;;16.60;99.90;;;;;;7283954;19;20214;-78
2023/04/21 06:40:58;;;;;;;21.93;16.90;;;16.50;99.90;;;;;;7306361;19;20185;-79
2023/04/21 06:43:24;;;;;;;21.97;16.60;;;16.60;99.90;;;;;;7285278;19;20185;-77
2023/04/21 06:45:50;;;;;;;23.57;17.40;;;16.00;99.90;;;;;;7285182;19;20629;-78
2023/04/21 06:48:15;;;;;;;22.37;17.87;;;15.50;99.90;;;;;;7282127;19;20207;-77
2023/04/21 06:50:43;;;;;;;22.93;17.83;;;14.10;99.90;;;;;;7282881;19;20213;-77
2023/04/21 06:53:10;;;;;;;23.00;17.63;;;13.40;99.90;;;;;;7281511;19;20188;-81
2023/04/21 06:55:36;;;;;;;24.80;17.37;;;12.90;99.90;;;;;;7279223;19;20196;-80
2023/04/21 06:58:02;;;;;;;21.53;15.90;;;13.80;99.90;;;;;;7284758;19;20597;-80
2023/04/21 07:00:27;;;;;;;21.07;15.77;;;15.50;99.90;;;;;;7306516;19;20186;-80
2023/04/21 07:02:53;;;;;;;20.00;14.87;;;17.20;99.90;;;;;;7284222;19;20188;-79
2023/04/21 07:05:19;;;;;;;19.40;14.67;;;18.30;99.90;;;;;;7283969;19;20541;-78
2023/04/21 07:07:45;;;;;;;18.77;14.50;;;19.10;99.90;;;;;;7278707;19;20185;-78
2023/04/21 07:10:10;;;;;;;17.67;14.00;;;19.80;99.90;;;;;;7283425;19;20192;-77
2023/04/21 07:12:36;;;;;;;17.13;13.77;;;20.60;99.90;;;;;;7283003;19;20206;-78
2023/04/21 07:15:02;;;;;;;18.47;13.60;;;21.30;99.90;;;;;;7284054;19;20197;-78
2023/04/21 07:17:28;;;;;;;17.50;13.13;;;21.20;99.90;;;;;;7307396;19;20177;-79
2023/04/21 07:19:54;;;;;;;16.07;12.93;;;21.20;99.90;;;;;;7283140;19;20264;-79
2023/04/21 07:22:20;;;;;;;18.00;13.60;;;20.40;99.90;;;;;;7283459;19;20191;-79
2023/04/21 07:24:46;;;;;;;17.27;13.30;;;19.90;99.90;;;;;;7283206;19;20210;-79
2023/04/21 07:27:12;;;;;;;17.67;13.47;;;19.50;99.90;;;;;;7284095;19;20183;-79
2023/04/21 07:29:37;;;;;;;16.07;12.50;;;19.30;99.90;;;;;;7282247;19;20252;-79
2023/04/21 07:32:03;;;;;;;17.70;12.40;;;20.00;99.90;;;;;;7282808;19;20207;-78
2023/04/21 07:34:29;;;;;;;15.03;11.77;;;19.00;99.90;;;;;;7300083;19;20186;-79
2023/04/21 07:36:55;;;;;;;17.27;12.13;;;18.40;99.90;;;;;;7295686;19;20182;-78
2023/04/21 07:39:21;;;;;;;17.20;12.50;;;18.50;99.90;;;;;;7281728;19;20201;-79
2023/04/21 07:41:47;;;;;;;17.50;13.00;;;18.20;99.90;;;;;;7282527;19;20188;-79
2023/04/21 07:44:13;;;;;;;18.57;14.10;;;16.90;99.90;;;;;;7284591;19;20192;-79
2023/04/21 07:46:38;;;;;;;19.53;14.10;;;15.90;99.90;;;;;;7282269;19;20184;-78
2023/04/21 07:49:04;;;;;;;20.80;13.87;;;15.60;99.90;;;;;;7282468;19;20191;-78
2023/04/21 07:51:30;;;;;;;16.77;12.27;;;15.90;99.90;;;;;;7289620;19;20185;-78
2023/04/21 07:53:56;;;;;;;18.00;12.90;;;16.90;99.90;;;;;;7304663;19;20187;-81
2023/04/21 07:56:22;;;;;;;19.07;12.97;;;16.60;99.90;;;;;;7281698;19;20188;-81
2023/04/21 07:58:48;;;;;;;17.17;12.57;;;16.40;99.90;;;;;;7283727;19;20181;-80
2023/04/21 08:01:14;;;;;;;15.70;12.30;;;17.90;99.90;;;;;;7282663;19;20290;-81
2023/04/21 08:03:40;;;;;;;15.93;12.00;;;18.10;99.90;;;;;;7282057;19;20194;-81
2023/04/21 08:06:06;;;;;;;21.07;12.00;;;18.90;99.90;;;;;;7282155;19;20187;-79
2023/04/21 08:08:32;;;;;;;16.13;11.60;;;20.10;99.90;;;;;;7286724;19;20183;-80
2023/04/21 08:10:57;;;;;;;13.93;10.80;;;21.10;99.90;;;;;;7304735;19;20218;-79
2023/04/21 08:13:24;;;;;;;15.83;11.57;;;21.90;99.90;;;;;;7286086;19;20189;-79
2023/04/21 08:15:53;;;;;;;19.63;11.47;;;20.90;99.90;;;;;;7288379;19;20299;-80
2023/04/21 08:18:19;;;;;;;15.13;11.37;;;19.90;99.90;;;;;;7290131;19;20700;-80
2023/04/21 08:20:46;;;;;;;16.60;11.57;;;19.70;99.90;;;;;;7288393;19;20207;-79
2023/04/21 08:23:15;;;;;;;16.40;11.50;;;20.10;99.90;;;;;;7289264;19;20543;-80
2023/04/21 08:25:41;;;;;;;15.67;11.30;;;19.10;99.90;;;;;;7288298;19;20189;-80
2023/04/21 08:28:07;;;;;;;16.37;11.73;;;18.80;99.90;;;;;;7288037;19;20180;-79
2023/04/21 08:30:33;;;;;;;15.30;11.07;;;19.30;99.90;;;;;;7288631;19;20185;-82
2023/04/21 08:32:58;;;;;;;16.37;11.50;;;19.10;99.90;;;;;;7308772;19;20192;-80
2023/04/21 08:35:25;;;;;;;15.90;10.83;;;19.00;99.90;;;;;;7287993;19;20593;-81
2023/04/21 08:37:50;;;;;;;15.27;10.97;;;19.30;99.90;;;;;;7289527;19;20701;-80
2023/04/21 08:40:17;;;;;;;15.23;10.33;;;19.60;99.90;;;;;;7288358;19;20194;-80
2023/04/21 08:42:44;;;;;;;17.73;11.17;;;20.20;99.90;;;;;;7288690;19;20186;-82
2023/04/21 08:45:10;;;;;;;13.63;10.73;;;21.70;99.90;;;;;;7286261;19;20193;-78
2023/04/21 08:47:39;;;;;;;13.97;10.10;;;21.70;99.90;;;;;;7287080;19;20207;-78
2023/04/21 08:50:10;;;;;;;15.57;10.67;;;23.60;99.90;;;;;;7289092;19;20222;-78
2023/04/21 08:52:36;;;;;;;13.63;10.33;;;25.00;99.50;;;;;;7286867;19;20197;-80
2023/04/21 08:55:02;;;;;;;13.70;10.17;;;25.10;97.20;;;;;;7287841;19;20180;-79
2023/04/21 08:57:28;;;;;;;12.65;10.10;;;25.10;95.50;;;;;;7309606;19;20211;-79
2023/04/21 08:59:54;;;;;;;14.40;10.27;;;25.70;92.90;;;;;;7285999;19;20196;-78
2023/04/21 09:02:20;;;;;;;13.90;10.10;;;24.10;93.20;;;;;;7289264;19;20198;-78
2023/04/21 09:04:50;;;;;;;15.47;10.70;;;23.80;94.30;;;;;;7287213;19;20195;-78
2023/04/21 09:07:38;;;;;;;13.73;9.70;;;22.80;94.90;;;;;;7287266;19;20185;-78
2023/04/21 09:10:05;;;;;;;12.20;9.87;;;24.30;95.30;;;;;;7266572;19;20204;-78
2023/04/21 09:12:31;;;;;;;12.83;9.53;;;24.90;92.70;;;;;;7295495;19;20533;-77
2023/04/21 09:14:57;;;;;;;13.17;9.00;;;24.40;91.50;;;;;;7308311;19;20219;-78
2023/04/21 09:17:32;;;;;;;12.00;9.23;;;23.00;92.30;;;;;;7287907;19;20544;-78
2023/04/21 09:20:14;;;;;;;14.03;9.93;;;22.20;93.70;;;;;;7286954;19;20651;-78
2023/04/21 09:22:40;;;;;;;12.23;9.23;;;22.30;94.40;;;;;;7184480;19;2005041;-78
2023/04/21 09:25:06;;;;;;;15.43;9.67;;;24.00;93.30;;;;;;7287486;19;20181;-78
2023/04/21 09:27:35;;;;;;;17.87;9.57;;;24.40;90.80;;;;;;7285580;19;20177;-78
2023/04/21 09:30:05;;;;;;;14.47;9.47;;;25.00;90.40;;;;;;7288449;19;20189;-78
2023/04/21 09:32:36;;;;;;;12.83;9.10;;;25.10;88.10;;;;;;7292452;19;20201;-77
2023/04/21 09:35:02;;;;;;;12.97;8.93;;;24.10;89.90;;;;;;7286993;19;20181;-77
2023/04/21 09:37:33;;;;;;;11.47;8.43;;;23.90;90.10;;;;;;7309189;19;20208;-79
2023/04/21 09:39:58;;;;;;;11.67;8.83;;;23.60;88.50;;;;;;7287235;19;20181;-78
2023/04/21 09:42:29;;;;;;;12.37;8.60;;;23.60;89.90;;;;;;7287749;19;20197;-78
2023/04/21 09:44:55;;;;;;;11.77;8.13;;;24.40;88.10;;;;;;7287005;19;20196;-78
2023/04/21 09:47:22;;;;;;;11.63;8.10;;;24.70;86.10;;;;;;7285614;19;20185;-79
2023/04/21 09:49:51;;;;;;;12.20;8.63;;;24.60;85.80;;;;;;7286641;19;20204;-78
2023/04/21 09:52:19;;;;;;;13.30;9.70;;;24.50;85.20;;;;;;7285882;19;20581;-78
2023/04/21 09:54:50;;;;;;;11.63;8.73;;;24.10;87.90;;;;;;7285602;19;20181;-78
2023/04/21 09:57:23;;;;;;;13.00;9.20;;;23.80;86.40;;;;;;7285820;19;20196;-79
2023/04/21 09:59:55;;;;;;;11.93;8.53;;;23.50;86.70;;;;;;7285244;19;20650;-79
2023/04/21 10:02:25;;;;;;;12.13;8.80;;;24.80;87.10;;;;;;7284117;19;20263;-79
2023/04/21 10:04:51;;;;;;;13.67;9.57;;;25.40;81.20;;;;;;7286220;19;20181;-78
2023/04/21 10:07:17;;;;;;;13.43;9.87;;;24.60;82.90;;;;;;7284941;19;20638;-78
2023/04/21 10:09:56;;;;;;;13.77;9.40;;;24.40;83.50;;;;;;7285241;19;20192;-80
2023/04/21 10:12:23;;;;;;;10.80;8.10;;;25.00;85.50;;;;;;7285497;19;20195;-79
2023/04/21 10:14:52;;;;;;;13.07;8.30;;;24.80;81.00;;;;;;7285765;19;20212;-79
2023/04/21 10:17:23;;;;;;;11.68;8.60;;;25.00;80.60;;;;;;7283377;19;20200;-78
2023/04/21 10:19:57;;;;;;;10.67;8.00;;;24.80;79.60;;;;;;7285560;19;20192;-78
2023/04/21 10:22:33;;;;;;;10.80;7.37;;;24.00;79.60;;;;;;7284829;19;20207;-78
2023/04/21 10:25:01;;;;;;;9.60;7.20;;;23.90;81.90;;;;;;7287174;19;20220;-79
2023/04/21 10:27:35;;;;;;;10.80;7.97;;;24.90;78.30;;;;;;7285480;19;20184;-79
2023/04/21 10:30:16;;;;;;;10.80;7.40;;;25.50;75.30;;;;;;7272568;19;20648;-78
2023/04/21 10:32:44;;;;;;;11.75;8.73;;;26.40;75.50;;;;;;7285188;19;20660;-78
2023/04/21 10:35:14;;;;;;;13.10;7.75;;;26.20;72.50;;;;;;7284688;19;20300;-78
2023/04/21 10:37:41;;;;;;;12.20;8.17;;;24.60;77.10;;;;;;7284386;19;20659;-78
2023/04/21 10:40:29;;;;;;;11.87;8.43;;;24.10;77.20;;;;;;7284526;19;20199;-78
2023/04/21 10:42:55;;;;;;;11.93;7.90;;;23.70;76.40;;;;;;7284849;19;20659;-78
2023/04/21 10:45:24;;;;;;;11.00;7.50;;;24.40;79.00;;;;;;7284587;19;20189;-79
2023/04/21 10:47:52;;;;;;;15.00;8.77;;;25.00;76.80;;;;;;7282911;19;20202;-76
2023/04/21 10:50:21;;;;;;;14.00;8.40;;;24.50;76.90;;;;;;7285664;19;20684;-76
2023/04/21 10:52:53;;;;;;;11.97;8.63;;;24.10;78.10;;;;;;7285069;19;20663;-77
2023/04/21 10:55:20;;;;;;;11.60;8.50;;;23.30;80.00;;;;;;7283641;19;20181;-77
2023/04/21 10:57:47;;;;;;;12.17;9.23;;;23.20;80.40;;;;;;7284770;19;20197;-78
2023/04/21 11:00:21;;;;;;;11.77;8.20;;;23.60;80.40;;;;;;7284502;19;20196;-78
2023/04/21 11:02:54;;;;;;;10.60;7.77;;;23.90;79.90;;;;;;7284916;19;20532;-78
2023/04/21 11:05:27;;;;;;;13.60;8.27;;;23.60;78.70;;;;;;7286193;19;20653;-78
2023/04/21 11:08:02;;;;;;;11.10;8.20;;;23.60;78.30;;;;;;7283763;19;20176;-79
2023/04/21 11:10:27;;;;;;;11.60;8.20;;;24.00;78.30;;;;;;7283939;19;20196;-78
2023/04/21 11:12:56;;;;;;;11.50;8.37;;;23.50;80.00;;;;;;7284060;19;20185;-79
2023/04/21 11:15:22;;;;;;;12.33;8.10;;;23.30;80.70;;;;;;7284603;19;20692;-78
2023/04/21 11:17:48;;;;;;;11.50;7.37;;;23.00;82.00;;;;;;7284418;19;20256;-78
2023/04/21 11:20:14;;;;;;;12.57;7.87;;;23.40;79.70;;;;;;7284740;19;20644;-80
2023/04/21 11:22:40;;;;;;;12.37;7.57;;;24.00;78.30;;;;;;7283260;19;20189;-78
2023/04/21 11:25:16;;;;;;;10.50;6.63;;;24.00;76.70;;;;;;7283265;19;20244;-79
2023/04/21 11:27:55;;;;;;;12.83;7.57;;;24.30;76.20;;;;;;7283667;19;20195;-79
2023/04/21 11:30:31;;;;;;;14.30;7.60;;;24.40;74.00;;;;;;7284966;19;20245;-79
2023/04/21 11:32:57;;;;;;;11.87;8.30;;;24.80;76.40;;;;;;7284215;19;20699;-78
2023/04/21 11:35:23;;;;;;;11.73;8.30;;;23.50;75.30;;;;;;7280855;19;20184;-78
2023/04/21 11:37:51;;;;;;;11.57;8.20;;;22.80;76.40;;;;;;7283119;19;20188;-78
2023/04/21 11:40:18;;;;;;;12.13;8.53;;;22.80;79.00;;;;;;7282840;19;20192;-78
2023/04/21 11:42:44;;;;;;;11.87;8.70;;;23.40;79.50;;;;;;7287158;19;20194;-79
2023/04/21 11:45:17;;;;;;;11.23;8.57;;;23.50;77.70;;;;;;7290326;19;20185;-79
2023/04/21 11:47:43;;;;;;;15.13;9.10;;;23.80;80.40;;;;;;7290223;19;20210;-78
2023/04/21 11:50:09;;;;;;;12.97;9.13;;;23.30;78.40;;;;;;7289304;19;20268;-79
2023/04/21 11:52:36;;;;;;;11.50;7.87;;;23.10;80.60;;;;;;7290499;19;20272;-79
2023/04/21 11:55:18;;;;;;;12.43;8.00;;;23.40;77.20;;;;;;7291294;19;20248;-80
2023/04/21 11:57:44;;;;;;;14.33;8.27;;;23.80;75.50;;;;;;7291053;19;20196;-81
2023/04/21 12:00:14;;;;;;;12.93;7.70;;;23.90;78.20;;;;;;7288707;19;20193;-80
2023/04/21 12:02:42;;;;;;;11.37;7.17;;;23.90;76.00;;;;;;7288870;19;20193;-81
2023/04/21 12:05:12;;;;;;;10.30;6.80;;;23.40;76.00;;;;;;7288798;19;20189;-80
2023/04/21 12:07:43;;;;;;;24.40;8.27;;;23.00;74.40;;;;;;7288895;19;20198;-80
2023/04/21 12:10:14;;;;;;;11.20;7.13;;;22.30;75.70;;;;;;7288228;19;20203;-80
2023/04/21 12:12:41;;;;;;;17.00;8.13;;;21.50;79.00;;;;;;7288889;19;20683;-79
2023/04/21 12:15:09;;;;;;;10.70;6.53;;;20.80;80.40;;;;;;7289245;19;20691;-80
2023/04/21 12:17:46;;;;;;;13.77;7.00;;;20.50;80.90;;;;;;7288908;19;20196;-77
2023/04/21 12:20:14;;;;;;;12.17;7.23;;;20.40;81.80;;;;;;7288649;19;20227;-78
2023/04/21 12:22:40;;;;;;;15.53;7.73;;;20.70;82.30;;;;;;7287391;19;20192;-78
2023/04/21 12:25:07;;;;;;;12.37;6.70;;;21.50;81.10;;;;;;7288682;19;20187;-80
2023/04/21 12:27:33;;;;;;;11.83;6.67;;;22.90;78.80;;;;;;7286903;19;20189;-79
2023/04/21 12:29:59;;;;;;;8.73;5.17;;;23.40;79.30;;;;;;7309598;19;20196;-79
2023/04/21 12:32:25;;;;;;;8.10;4.83;;;22.30;73.40;;;;;;7289004;19;20278;-79